sensor_id;sensor_type;location;lat;lon;timestamp;pressure;altitude;pressure_sealevel;temperature;humidity
20256;BME280;10286;59.364;18.016;2022-10-26T00:01:01;100053.41;;;10.98;100.00
20256;BME280;10286;59.364;18.016;2022-10-26T00:03:28;100054.22;;;10.99;100.00
20256;BME280;10286;59.364;18.016;2022-10-26T00:06:00;100061.34;;;10.98;100.00
20256;BME280;10286;59.364;18.016;2022-10-26T00:08:27;100063.00;;;10.99;100.00
20256;BME280;10286;59.364;18.016;2022-10-26T00:10:56;100069.25;;;10.98;100.00
20256;BME280;10286;59.364;18.016;2022-10-26T00:13:23;100072.59;;;11.00;100.00
20256;BME280;10286;59.364;18.016;2022-10-26T00:15:51;100069.94;;;11.00;100.00
20256;BME280;10286;59.364;18.016;2022-10-26T00:18:18;100069.94;;;11.00;100.00
20256;BME280;10286;59.364;18.016;2022-10-26T00:20:44;100072.88;;;10.97;100.00
20256;BME280;10286;59.364;18.016;2022-10-26T00:23:11;100071.72;;;11.00;100.00
20256;BME280;10286;59.364;18.016;2022-10-26T00:25:39;100069.94;;;11.00;100.00
20256;BME280;10286;59.364;18.016;2022-10-26T00:28:05;100074.91;;;11.03;100.00
20256;BME280;10286;59.364;18.016;2022-10-26T00:30:32;100076.72;;;11.03;100.00
20256;BME280;10286;59.364;18.016;2022-10-26T00:33:00;100081.19;;;11.02;100.00
20256;BME280;10286;59.364;18.016;2022-10-26T00:35:27;100082.97;;;11.02;100.00
20256;BME280;10286;59.364;18.016;2022-10-26T00:37:54;100081.63;;;10.98;100.00
20256;BME280;10286;59.364;18.016;2022-10-26T00:40:21;100083.44;;;10.97;100.00
20256;BME280;10286;59.364;18.016;2022-10-26T00:42:52;100089.00;;;10.94;100.00
20256;BME280;10286;59.364;18.016;2022-10-26T00:45:19;100090.44;;;10.89;100.00
20256;BME280;10286;59.364;18.016;2022-10-26T00:47:47;100084.00;;;10.91;100.00
20256;BME280;10286;59.364;18.016;2022-10-26T00:50:17;100090.75;;;10.86;100.00
20256;BME280;10286;59.364;18.016;2022-10-26T00:52:46;100086.69;;;10.82;100.00
20256;BME280;10286;59.364;18.016;2022-10-26T00:55:12;100099.09;;;10.81;100.00
20256;BME280;10286;59.364;18.016;2022-10-26T00:57:39;100096.56;;;10.80;100.00
20256;BME280;10286;59.364;18.016;2022-10-26T01:00:07;100101.72;;;10.81;100.00
20256;BME280;10286;59.364;18.016;2022-10-26T01:02:34;100097.31;;;10.72;100.00
20256;BME280;10286;59.364;18.016;2022-10-26T01:05:02;100091.81;;;10.66;100.00
20256;BME280;10286;59.364;18.016;2022-10-26T01:07:30;100099.56;;;10.67;100.00
20256;BME280;10286;59.364;18.016;2022-10-26T01:09:58;100103.56;;;10.71;100.00
20256;BME280;10286;59.364;18.016;2022-10-26T01:12:26;100098.47;;;10.60;100.00
20256;BME280;10286;59.364;18.016;2022-10-26T01:14:53;100096.94;;;10.58;100.00
20256;BME280;10286;59.364;18.016;2022-10-26T01:17:24;100103.78;;;10.51;100.00
20256;BME280;10286;59.364;18.016;2022-10-26T01:22:40;100104.22;;;10.46;100.00
20256;BME280;10286;59.364;18.016;2022-10-26T01:25:12;100108.81;;;10.44;100.00
20256;BME280;10286;59.364;18.016;2022-10-26T01:27:41;100107.84;;;10.45;100.00
20256;BME280;10286;59.364;18.016;2022-10-26T01:30:21;100112.44;;;10.43;100.00
20256;BME280;10286;59.364;18.016;2022-10-26T01:33:02;100117.88;;;10.32;100.00
20256;BME280;10286;59.364;18.016;2022-10-26T01:35:33;100116.34;;;10.30;100.00
20256;BME280;10286;59.364;18.016;2022-10-26T01:38:03;100116.47;;;10.38;100.00
20256;BME280;10286;59.364;18.016;2022-10-26T01:40:31;100122.72;;;10.37;100.00
20256;BME280;10286;59.364;18.016;2022-10-26T01:43:01;100125.81;;;10.32;100.00
20256;BME280;10286;59.364;18.016;2022-10-26T01:45:32;100127.03;;;10.28;100.00
20256;BME280;10286;59.364;18.016;2022-10-26T01:47:59;100121.06;;;10.26;100.00
20256;BME280;10286;59.364;18.016;2022-10-26T01:50:28;100129.97;;;10.25;100.00
20256;BME280;10286;59.364;18.016;2022-10-26T01:52:56;100131.22;;;10.21;100.00
20256;BME280;10286;59.364;18.016;2022-10-26T01:55:40;100125.69;;;10.15;100.00
20256;BME280;10286;59.364;18.016;2022-10-26T01:58:09;100130.66;;;10.18;100.00
20256;BME280;10286;59.364;18.016;2022-10-26T02:00:41;100130.66;;;10.18;100.00
20256;BME280;10286;59.364;18.016;2022-10-26T02:03:14;100128.19;;;10.17;100.00
20256;BME280;10286;59.364;18.016;2022-10-26T02:05:53;100141.38;;;10.17;100.00
20256;BME280;10286;59.364;18.016;2022-10-26T02:08:33;100140.25;;;10.19;100.00
20256;BME280;10286;59.364;18.016;2022-10-26T02:11:06;100139.56;;;10.08;100.00
20256;BME280;10286;59.364;18.016;2022-10-26T02:13:38;100141.66;;;10.14;100.00
20256;BME280;10286;59.364;18.016;2022-10-26T02:16:12;100143.03;;;10.18;100.00
20256;BME280;10286;59.364;18.016;2022-10-26T02:18:41;100145.13;;;10.14;100.00
20256;BME280;10286;59.364;18.016;2022-10-26T02:21:11;100151.75;;;10.18;100.00
20256;BME280;10286;59.364;18.016;2022-10-26T02:23:40;100151.63;;;10.19;100.00
20256;BME280;10286;59.364;18.016;2022-10-26T02:26:10;100156.63;;;10.13;100.00
20256;BME280;10286;59.364;18.016;2022-10-26T02:28:39;100162.88;;;10.12;100.00
20256;BME280;10286;59.364;18.016;2022-10-26T02:31:09;100156.22;;;10.08;100.00
20256;BME280;10286;59.364;18.016;2022-10-26T02:33:37;100155.53;;;10.06;100.00
20256;BME280;10286;59.364;18.016;2022-10-26T02:36:06;100162.31;;;10.09;100.00
20256;BME280;10286;59.364;18.016;2022-10-26T02:38:34;100168.03;;;10.04;100.00
20256;BME280;10286;59.364;18.016;2022-10-26T02:41:02;100164.81;;;10.01;100.00
20256;BME280;10286;59.364;18.016;2022-10-26T02:43:29;100169.38;;;9.99;100.00
20256;BME280;10286;59.364;18.016;2022-10-26T02:46:03;100169.09;;;9.92;100.00
20256;BME280;10286;59.364;18.016;2022-10-26T02:48:32;100184.81;;;9.94;100.00
20256;BME280;10286;59.364;18.016;2022-10-26T02:50:59;100178.16;;;9.90;100.00
20256;BME280;10286;59.364;18.016;2022-10-26T02:53:29;100181.88;;;9.87;100.00
20256;BME280;10286;59.364;18.016;2022-10-26T02:55:57;100180.06;;;9.88;100.00
20256;BME280;10286;59.364;18.016;2022-10-26T02:58:26;100180.63;;;9.91;100.00
20256;BME280;10286;59.364;18.016;2022-10-26T03:00:54;100184.78;;;9.84;100.00
20256;BME280;10286;59.364;18.016;2022-10-26T03:03:21;100184.63;;;9.76;100.00
20256;BME280;10286;59.364;18.016;2022-10-26T03:05:50;100186.88;;;9.81;100.00
20256;BME280;10286;59.364;18.016;2022-10-26T03:08:17;100189.38;;;9.73;100.00
20256;BME280;10286;59.364;18.016;2022-10-26T03:10:44;100190.59;;;9.78;100.00
20256;BME280;10286;59.364;18.016;2022-10-26T03:13:11;100184.78;;;9.75;100.00
20256;BME280;10286;59.364;18.016;2022-10-26T03:15:38;100193.94;;;9.71;100.00
20256;BME280;10286;59.364;18.016;2022-10-26T03:18:05;100189.50;;;9.71;100.00
20256;BME280;10286;59.364;18.016;2022-10-26T03:20:32;100198.53;;;9.69;100.00
20256;BME280;10286;59.364;18.016;2022-10-26T03:23:00;100203.34;;;9.64;100.00
20256;BME280;10286;59.364;18.016;2022-10-26T03:25:27;100200.72;;;9.64;100.00
20256;BME280;10286;59.364;18.016;2022-10-26T03:27:57;100218.16;;;9.55;100.00
20256;BME280;10286;59.364;18.016;2022-10-26T03:30:24;100211.00;;;9.57;100.00
20256;BME280;10286;59.364;18.016;2022-10-26T03:32:51;100206.25;;;9.61;100.00
20256;BME280;10286;59.364;18.016;2022-10-26T03:35:17;100214.84;;;9.63;100.00
20256;BME280;10286;59.364;18.016;2022-10-26T03:37:44;100222.63;;;9.64;100.00
20256;BME280;10286;59.364;18.016;2022-10-26T03:40:13;100231.53;;;9.63;100.00
20256;BME280;10286;59.364;18.016;2022-10-26T03:42:39;100229.69;;;9.64;100.00
20256;BME280;10286;59.364;18.016;2022-10-26T03:45:07;100230.41;;;9.66;100.00
20256;BME280;10286;59.364;18.016;2022-10-26T03:47:34;100240.25;;;9.64;100.00
20256;BME280;10286;59.364;18.016;2022-10-26T03:50:06;100233.19;;;9.64;100.00
20256;BME280;10286;59.364;18.016;2022-10-26T03:52:33;100233.72;;;9.68;100.00
20256;BME280;10286;59.364;18.016;2022-10-26T03:55:00;100230.41;;;9.66;100.00
20256;BME280;10286;59.364;18.016;2022-10-26T03:57:28;100239.72;;;9.70;100.00
20256;BME280;10286;59.364;18.016;2022-10-26T03:59:55;100237.34;;;9.67;100.00
20256;BME280;10286;59.364;18.016;2022-10-26T04:02:21;100247.75;;;9.68;100.00
20256;BME280;10286;59.364;18.016;2022-10-26T04:04:48;100246.78;;;9.69;100.00
20256;BME280;10286;59.364;18.016;2022-10-26T04:07:15;100252.44;;;9.65;100.00
20256;BME280;10286;59.364;18.016;2022-10-26T04:09:42;100253.16;;;9.67;100.00
20256;BME280;10286;59.364;18.016;2022-10-26T04:12:08;100260.50;;;9.63;100.00
20256;BME280;10286;59.364;18.016;2022-10-26T04:14:37;100260.91;;;9.59;100.00
20256;BME280;10286;59.364;18.016;2022-10-26T04:17:04;100267.84;;;9.60;100.00
20256;BME280;10286;59.364;18.016;2022-10-26T04:19:31;100264.91;;;9.53;100.00
20256;BME280;10286;59.364;18.016;2022-10-26T04:21:57;100262.16;;;9.55;100.00
20256;BME280;10286;59.364;18.016;2022-10-26T04:24:24;100261.28;;;9.54;100.00
20256;BME280;10286;59.364;18.016;2022-10-26T04:26:51;100266.31;;;9.57;100.00
20256;BME280;10286;59.364;18.016;2022-10-26T04:29:18;100266.44;;;9.56;100.00
20256;BME280;10286;59.364;18.016;2022-10-26T04:31:46;100270.88;;;9.55;100.00
20256;BME280;10286;59.364;18.016;2022-10-26T04:34:13;100279.91;;;9.53;100.00
20256;BME280;10286;59.364;18.016;2022-10-26T04:36:40;100275.44;;;9.53;100.00
20256;BME280;10286;59.364;18.016;2022-10-26T04:39:06;100278.22;;;9.52;100.00
20256;BME280;10286;59.364;18.016;2022-10-26T04:41:33;100289.03;;;9.49;100.00
20256;BME280;10286;59.364;18.016;2022-10-26T04:44:00;100277.53;;;9.50;100.00
20256;BME280;10286;59.364;18.016;2022-10-26T04:46:27;100284.19;;;9.54;100.00
20256;BME280;10286;59.364;18.016;2022-10-26T04:48:55;100300.13;;;9.52;100.00
20256;BME280;10286;59.364;18.016;2022-10-26T04:51:22;100288.56;;;9.44;100.00
20256;BME280;10286;59.364;18.016;2022-10-26T04:53:49;100291.09;;;9.45;100.00
20256;BME280;10286;59.364;18.016;2022-10-26T04:56:18;100293.59;;;9.47;100.00
20256;BME280;10286;59.364;18.016;2022-10-26T04:58:45;100296.47;;;9.44;100.00
20256;BME280;10286;59.364;18.016;2022-10-26T05:01:13;100297.06;;;9.47;100.00
20256;BME280;10286;59.364;18.016;2022-10-26T05:03:39;100303.19;;;9.48;100.00
20256;BME280;10286;59.364;18.016;2022-10-26T05:06:07;100301.75;;;9.44;100.00
20256;BME280;10286;59.364;18.016;2022-10-26T05:08:34;100306.06;;;9.45;100.00
20256;BME280;10286;59.364;18.016;2022-10-26T05:11:01;100312.56;;;9.41;100.00
20256;BME280;10286;59.364;18.016;2022-10-26T05:13:28;100325.03;;;9.39;100.00
20256;BME280;10286;59.364;18.016;2022-10-26T05:15:55;100318.94;;;9.38;100.00
20256;BME280;10286;59.364;18.016;2022-10-26T05:18:21;100322.78;;;9.34;100.00
20256;BME280;10286;59.364;18.016;2022-10-26T05:20:50;100333.47;;;9.33;100.00
20256;BME280;10286;59.364;18.016;2022-10-26T05:23:19;100330.25;;;9.29;100.00
20256;BME280;10286;59.364;18.016;2022-10-26T05:25:46;100335.78;;;9.26;100.00
20256;BME280;10286;59.364;18.016;2022-10-26T05:28:13;100337.00;;;9.22;100.00
20256;BME280;10286;59.364;18.016;2022-10-26T05:30:41;100329.22;;;9.21;100.00
20256;BME280;10286;59.364;18.016;2022-10-26T05:33:08;100340.72;;;9.20;100.00
20256;BME280;10286;59.364;18.016;2022-10-26T05:35:35;100342.13;;;9.24;100.00
20256;BME280;10286;59.364;18.016;2022-10-26T05:38:05;100343.94;;;9.23;100.00
20256;BME280;10286;59.364;18.016;2022-10-26T05:40:34;100351.69;;;9.25;100.00
20256;BME280;10286;59.364;18.016;2022-10-26T05:43:01;100357.72;;;9.27;100.00
20256;BME280;10286;59.364;18.016;2022-10-26T05:45:28;100363.63;;;9.19;100.00
20256;BME280;10286;59.364;18.016;2022-10-26T05:47:56;100364.13;;;9.13;100.00
20256;BME280;10286;59.364;18.016;2022-10-26T05:50:23;100367.59;;;9.14;100.00
20256;BME280;10286;59.364;18.016;2022-10-26T05:52:50;100374.78;;;9.12;100.00
20256;BME280;10286;59.364;18.016;2022-10-26T05:55:17;100381.03;;;9.11;100.00
20256;BME280;10286;59.364;18.016;2022-10-26T05:57:45;100385.06;;;9.15;100.00
20256;BME280;10286;59.364;18.016;2022-10-26T06:00:14;100379.34;;;9.10;100.00
20256;BME280;10286;59.364;18.016;2022-10-26T06:02:43;100396.13;;;9.09;100.00
20256;BME280;10286;59.364;18.016;2022-10-26T06:05:14;100392.53;;;9.10;100.00
20256;BME280;10286;59.364;18.016;2022-10-26T06:07:45;100399.72;;;9.08;100.00
20256;BME280;10286;59.364;18.016;2022-10-26T06:10:12;100414.66;;;9.07;100.00
20256;BME280;10286;59.364;18.016;2022-10-26T06:12:39;100399.00;;;9.06;100.00
20256;BME280;10286;59.364;18.016;2022-10-26T06:15:10;100404.97;;;9.08;100.00
20256;BME280;10286;59.364;18.016;2022-10-26T06:17:41;100414.41;;;9.10;100.00
20256;BME280;10286;59.364;18.016;2022-10-26T06:20:20;100415.69;;;9.16;100.00
20256;BME280;10286;59.364;18.016;2022-10-26T06:22:52;100419.88;;;9.18;100.00
20256;BME280;10286;59.364;18.016;2022-10-26T06:25:26;100415.81;;;9.14;100.00
20256;BME280;10286;59.364;18.016;2022-10-26T06:27:59;100429.84;;;9.15;100.00
20256;BME280;10286;59.364;18.016;2022-10-26T06:30:29;100435.47;;;9.10;100.00
20256;BME280;10286;59.364;18.016;2022-10-26T06:32:57;100437.72;;;9.15;100.00
20256;BME280;10286;59.364;18.016;2022-10-26T06:35:28;100437.16;;;9.11;100.00
20256;BME280;10286;59.364;18.016;2022-10-26T06:37:57;100443.25;;;9.12;100.00
20256;BME280;10286;59.364;18.016;2022-10-26T06:40:26;100432.59;;;9.13;100.00
20256;BME280;10286;59.364;18.016;2022-10-26T06:42:55;100452.13;;;9.11;100.00
20256;BME280;10286;59.364;18.016;2022-10-26T06:45:23;100453.72;;;9.02;100.00
20256;BME280;10286;59.364;18.016;2022-10-26T06:47:53;100446.25;;;9.07;100.00
20256;BME280;10286;59.364;18.016;2022-10-26T06:50:26;100453.78;;;9.12;100.00
20256;BME280;10286;59.364;18.016;2022-10-26T06:52:56;100452.47;;;9.17;100.00
20256;BME280;10286;59.364;18.016;2022-10-26T06:55:25;100455.22;;;9.16;100.00
20256;BME280;10286;59.364;18.016;2022-10-26T06:57:56;100456.06;;;9.16;100.00
20256;BME280;10286;59.364;18.016;2022-10-26T07:00:24;100456.63;;;9.20;100.00
20256;BME280;10286;59.364;18.016;2022-10-26T07:02:52;100463.28;;;9.24;100.00
20256;BME280;10286;59.364;18.016;2022-10-26T07:05:20;100468.88;;;9.30;100.00
20256;BME280;10286;59.364;18.016;2022-10-26T07:07:47;100462.53;;;9.33;100.00
20256;BME280;10286;59.364;18.016;2022-10-26T07:10:14;100467.94;;;9.31;100.00
20256;BME280;10286;59.364;18.016;2022-10-26T07:12:41;100477.06;;;9.27;100.00
20256;BME280;10286;59.364;18.016;2022-10-26T07:15:09;100475.84;;;9.31;100.00
20256;BME280;10286;59.364;18.016;2022-10-26T07:17:41;100484.00;;;9.28;100.00
20256;BME280;10286;59.364;18.016;2022-10-26T07:20:09;100483.03;;;9.29;100.00
20256;BME280;10286;59.364;18.016;2022-10-26T07:22:36;100490.66;;;9.32;100.00
20256;BME280;10286;59.364;18.016;2022-10-26T07:25:04;100496.34;;;9.28;100.00
20256;BME280;10286;59.364;18.016;2022-10-26T07:27:32;100491.97;;;9.38;100.00
20256;BME280;10286;59.364;18.016;2022-10-26T07:29:59;100487.06;;;9.33;100.00
20256;BME280;10286;59.364;18.016;2022-10-26T07:32:26;100503.06;;;9.21;100.00
20256;BME280;10286;59.364;18.016;2022-10-26T07:34:52;100505.94;;;9.18;100.00
20256;BME280;10286;59.364;18.016;2022-10-26T07:37:21;100508.13;;;9.13;100.00
20256;BME280;10286;59.364;18.016;2022-10-26T07:39:47;100515.31;;;9.11;100.00
20256;BME280;10286;59.364;18.016;2022-10-26T07:42:14;100511.03;;;9.10;100.00
20256;BME280;10286;59.364;18.016;2022-10-26T07:44:41;100513.16;;;9.16;100.00
20256;BME280;10286;59.364;18.016;2022-10-26T07:47:08;100527.88;;;9.18;100.00
20256;BME280;10286;59.364;18.016;2022-10-26T07:49:35;100523.50;;;9.28;100.00
20256;BME280;10286;59.364;18.016;2022-10-26T07:52:02;100529.13;;;9.35;100.00
20256;BME280;10286;59.364;18.016;2022-10-26T07:54:30;100535.19;;;9.35;100.00
20256;BME280;10286;59.364;18.016;2022-10-26T07:56:57;100533.31;;;9.37;100.00
20256;BME280;10286;59.364;18.016;2022-10-26T07:59:24;100540.81;;;9.42;100.00
20256;BME280;10286;59.364;18.016;2022-10-26T08:01:51;100535.28;;;9.45;100.00
20256;BME280;10286;59.364;18.016;2022-10-26T08:04:18;100543.19;;;9.45;100.00
20256;BME280;10286;59.364;18.016;2022-10-26T08:06:45;100538.66;;;9.47;100.00
20256;BME280;10286;59.364;18.016;2022-10-26T08:09:12;100540.06;;;9.51;100.00
20256;BME280;10286;59.364;18.016;2022-10-26T08:11:41;100542.28;;;9.55;100.00
20256;BME280;10286;59.364;18.016;2022-10-26T08:14:09;100549.00;;;9.59;100.00
20256;BME280;10286;59.364;18.016;2022-10-26T08:16:36;100550.47;;;9.52;100.00
20256;BME280;10286;59.364;18.016;2022-10-26T08:19:04;100558.50;;;9.51;100.00
20256;BME280;10286;59.364;18.016;2022-10-26T08:21:31;100553.44;;;9.59;100.00
20256;BME280;10286;59.364;18.016;2022-10-26T08:23:58;100551.31;;;9.73;100.00
20256;BME280;10286;59.364;18.016;2022-10-26T08:26:25;100559.03;;;9.65;100.00
20256;BME280;10286;59.364;18.016;2022-10-26T08:28:53;100564.81;;;9.80;100.00
20256;BME280;10286;59.364;18.016;2022-10-26T08:31:20;100566.22;;;9.84;100.00
20256;BME280;10286;59.364;18.016;2022-10-26T08:33:47;100572.31;;;9.64;100.00
20256;BME280;10286;59.364;18.016;2022-10-26T08:36:14;100578.44;;;9.64;100.00
20256;BME280;10286;59.364;18.016;2022-10-26T08:38:46;100581.72;;;9.57;100.00
20256;BME280;10286;59.364;18.016;2022-10-26T08:41:12;100578.72;;;9.50;100.00
20256;BME280;10286;59.364;18.016;2022-10-26T08:43:40;100579.69;;;9.49;100.00
20256;BME280;10286;59.364;18.016;2022-10-26T08:46:10;100584.47;;;9.55;100.00
20256;BME280;10286;59.364;18.016;2022-10-26T08:48:39;100586.09;;;9.47;100.00
20256;BME280;10286;59.364;18.016;2022-10-26T08:51:10;100585.22;;;9.46;100.00
20256;BME280;10286;59.364;18.016;2022-10-26T08:53:40;100594.63;;;9.60;100.00
20256;BME280;10286;59.364;18.016;2022-10-26T08:56:10;100598.06;;;9.71;100.00
20256;BME280;10286;59.364;18.016;2022-10-26T08:58:39;100599.53;;;9.64;100.00
20256;BME280;10286;59.364;18.016;2022-10-26T09:01:10;100603.69;;;9.67;100.00
20256;BME280;10286;59.364;18.016;2022-10-26T09:03:37;100601.72;;;9.59;100.00
20256;BME280;10286;59.364;18.016;2022-10-26T09:06:07;100605.88;;;9.62;100.00
20256;BME280;10286;59.364;18.016;2022-10-26T09:08:37;100602.72;;;9.68;100.00
20256;BME280;10286;59.364;18.016;2022-10-26T09:11:11;100605.22;;;9.49;100.00
20256;BME280;10286;59.364;18.016;2022-10-26T09:13:44;100612.56;;;9.66;100.00
20256;BME280;10286;59.364;18.016;2022-10-26T09:16:21;100611.13;;;9.73;100.00
20256;BME280;10286;59.364;18.016;2022-10-26T09:18:51;100616.06;;;9.87;100.00
20256;BME280;10286;59.364;18.016;2022-10-26T09:21:25;100616.84;;;9.98;100.00
20256;BME280;10286;59.364;18.016;2022-10-26T09:23:58;100624.81;;;9.87;100.00
20256;BME280;10286;59.364;18.016;2022-10-26T09:26:28;100612.97;;;9.82;100.00
20256;BME280;10286;59.364;18.016;2022-10-26T09:28:58;100618.31;;;9.91;100.00
20256;BME280;10286;59.364;18.016;2022-10-26T09:31:28;100610.59;;;9.99;100.00
20256;BME280;10286;59.364;18.016;2022-10-26T09:33:56;100629.03;;;10.10;100.00
20256;BME280;10286;59.364;18.016;2022-10-26T09:36:25;100626.84;;;10.15;100.00
20256;BME280;10286;59.364;18.016;2022-10-26T09:38:55;100619.97;;;10.23;100.00
20256;BME280;10286;59.364;18.016;2022-10-26T09:41:25;100619.84;;;10.25;100.00
20256;BME280;10286;59.364;18.016;2022-10-26T09:43:54;100627.19;;;10.21;100.00
20256;BME280;10286;59.364;18.016;2022-10-26T09:46:26;100625.75;;;10.18;100.00
20256;BME280;10286;59.364;18.016;2022-10-26T09:48:56;100635.41;;;10.08;100.00
20256;BME280;10286;59.364;18.016;2022-10-26T09:51:24;100636.59;;;10.15;100.00
20256;BME280;10286;59.364;18.016;2022-10-26T09:53:52;100638.50;;;10.13;100.00
20256;BME280;10286;59.364;18.016;2022-10-26T09:56:19;100653.13;;;10.17;100.00
20256;BME280;10286;59.364;18.016;2022-10-26T09:58:47;100656.75;;;10.05;100.00
20256;BME280;10286;59.364;18.016;2022-10-26T10:01:20;100652.66;;;10.12;100.00
20256;BME280;10286;59.364;18.016;2022-10-26T10:03:47;100646.66;;;10.10;100.00
20256;BME280;10286;59.364;18.016;2022-10-26T10:06:16;100646.97;;;9.96;100.00
20256;BME280;10286;59.364;18.016;2022-10-26T10:08:44;100657.88;;;9.91;100.00
20256;BME280;10286;59.364;18.016;2022-10-26T10:11:35;100653.13;;;9.85;100.00
20256;BME280;10286;59.364;18.016;2022-10-26T10:14:04;100650.34;;;9.87;100.00
20256;BME280;10286;59.364;18.016;2022-10-26T10:16:32;100657.75;;;9.93;100.00
20256;BME280;10286;59.364;18.016;2022-10-26T10:18:59;100664.56;;;9.95;100.00
20256;BME280;10286;59.364;18.016;2022-10-26T10:21:33;100664.44;;;9.97;100.00
20256;BME280;10286;59.364;18.016;2022-10-26T10:24:01;100664.69;;;10.05;100.00
20256;BME280;10286;59.364;18.016;2022-10-26T10:26:27;100663.84;;;9.93;100.00
20256;BME280;10286;59.364;18.016;2022-10-26T10:28:58;100665.28;;;9.97;100.00
20256;BME280;10286;59.364;18.016;2022-10-26T10:31:29;100662.00;;;9.84;100.00
20256;BME280;10286;59.364;18.016;2022-10-26T10:33:56;100660.97;;;9.96;100.00
20256;BME280;10286;59.364;18.016;2022-10-26T10:36:25;100667.78;;;9.99;100.00
20256;BME280;10286;59.364;18.016;2022-10-26T10:38:55;100675.25;;;9.94;100.00
20256;BME280;10286;59.364;18.016;2022-10-26T10:41:23;100672.91;;;9.80;100.00
20256;BME280;10286;59.364;18.016;2022-10-26T10:43:52;100675.19;;;9.84;100.00
20256;BME280;10286;59.364;18.016;2022-10-26T10:46:20;100684.00;;;9.94;100.00
20256;BME280;10286;59.364;18.016;2022-10-26T10:48:49;100688.66;;;10.02;100.00
20256;BME280;10286;59.364;18.016;2022-10-26T10:51:18;100701.84;;;10.02;100.00
20256;BME280;10286;59.364;18.016;2022-10-26T10:53:47;100697.44;;;10.02;100.00
20256;BME280;10286;59.364;18.016;2022-10-26T10:56:25;100699.97;;;9.93;100.00
20256;BME280;10286;59.364;18.016;2022-10-26T10:58:57;100706.38;;;10.00;100.00
20256;BME280;10286;59.364;18.016;2022-10-26T11:01:28;100708.31;;;9.98;100.00
20256;BME280;10286;59.364;18.016;2022-10-26T11:04:06;100711.06;;;9.96;100.00
20256;BME280;10286;59.364;18.016;2022-10-26T11:06:37;100728.25;;;9.91;100.00
20256;BME280;10286;59.364;18.016;2022-10-26T11:09:06;100714.31;;;9.89;100.00
20256;BME280;10286;59.364;18.016;2022-10-26T11:11:36;100720.34;;;9.91;100.00
20256;BME280;10286;59.364;18.016;2022-10-26T11:14:04;100720.72;;;9.86;100.00
20256;BME280;10286;59.364;18.016;2022-10-26T11:16:32;100723.59;;;9.83;100.00
20256;BME280;10286;59.364;18.016;2022-10-26T11:19:03;100727.84;;;9.95;100.00
20256;BME280;10286;59.364;18.016;2022-10-26T11:21:33;100732.16;;;9.96;100.00
20256;BME280;10286;59.364;18.016;2022-10-26T11:24:09;100737.34;;;9.87;100.00
20256;BME280;10286;59.364;18.016;2022-10-26T11:26:40;100735.94;;;9.83;100.00
20256;BME280;10286;59.364;18.016;2022-10-26T11:29:11;100735.84;;;9.73;100.00
20256;BME280;10286;59.364;18.016;2022-10-26T11:31:43;100732.94;;;9.87;100.00
20256;BME280;10286;59.364;18.016;2022-10-26T11:34:16;100745.41;;;9.74;100.00
20256;BME280;10286;59.364;18.016;2022-10-26T11:36:47;100729.84;;;9.82;100.00
20256;BME280;10286;59.364;18.016;2022-10-26T11:39:17;100740.13;;;9.85;100.00
20256;BME280;10286;59.364;18.016;2022-10-26T11:41:50;100747.91;;;9.87;100.00
20256;BME280;10286;59.364;18.016;2022-10-26T11:44:21;100749.25;;;9.81;100.00
20256;BME280;10286;59.364;18.016;2022-10-26T11:46:53;100750.84;;;9.73;100.00
20256;BME280;10286;59.364;18.016;2022-10-26T11:49:22;100748.91;;;9.75;100.00
20256;BME280;10286;59.364;18.016;2022-10-26T11:51:51;100763.41;;;9.80;100.00
20256;BME280;10286;59.364;18.016;2022-10-26T11:54:21;100756.81;;;9.75;100.00
20256;BME280;10286;59.364;18.016;2022-10-26T11:56:51;100756.81;;;9.64;100.00
20256;BME280;10286;59.364;18.016;2022-10-26T11:59:19;100769.53;;;9.59;100.00
20256;BME280;10286;59.364;18.016;2022-10-26T12:01:46;100772.38;;;9.67;100.00
20256;BME280;10286;59.364;18.016;2022-10-26T12:04:15;100774.66;;;9.71;100.00
20256;BME280;10286;59.364;18.016;2022-10-26T12:06:43;100781.63;;;9.72;100.00
20256;BME280;10286;59.364;18.016;2022-10-26T12:09:11;100772.84;;;9.83;100.00
20256;BME280;10286;59.364;18.016;2022-10-26T12:11:42;100774.25;;;9.87;100.00
20256;BME280;10286;59.364;18.016;2022-10-26T12:14:14;100775.81;;;9.89;100.00
20256;BME280;10286;59.364;18.016;2022-10-26T12:16:45;100777.63;;;9.89;100.00
20256;BME280;10286;59.364;18.016;2022-10-26T12:19:15;100783.03;;;9.87;100.00
20256;BME280;10286;59.364;18.016;2022-10-26T12:21:44;100783.50;;;9.92;100.00
20256;BME280;10286;59.364;18.016;2022-10-26T12:24:26;100783.38;;;9.83;100.00
20256;BME280;10286;59.364;18.016;2022-10-26T12:26:54;100775.47;;;9.83;100.00
20256;BME280;10286;59.364;18.016;2022-10-26T12:29:27;100774.53;;;9.84;100.00
20256;BME280;10286;59.364;18.016;2022-10-26T12:31:54;100776.91;;;9.87;100.00
20256;BME280;10286;59.364;18.016;2022-10-26T12:34:21;100775.22;;;9.86;100.00
20256;BME280;10286;59.364;18.016;2022-10-26T12:36:49;100773.56;;;9.85;100.00
20256;BME280;10286;59.364;18.016;2022-10-26T12:39:25;100772.34;;;9.89;100.00
20256;BME280;10286;59.364;18.016;2022-10-26T12:41:54;100783.38;;;9.83;100.00
20256;BME280;10286;59.364;18.016;2022-10-26T12:44:33;100782.31;;;9.85;100.00
20256;BME280;10286;59.364;18.016;2022-10-26T12:47:00;100779.78;;;9.95;100.00
20256;BME280;10286;59.364;18.016;2022-10-26T12:52:19;100780.50;;;9.97;100.00